createdAt,value
2023-02-16T00:01:53.141Z,6.18
2023-02-16T00:04:23.941Z,4.97
2023-02-16T00:06:52.423Z,4.06
2023-02-16T00:09:20.749Z,3.40
2023-02-16T00:12:07.605Z,2.89
2023-02-16T00:14:36.851Z,2.43
2023-02-16T00:17:05.074Z,2.42
2023-02-16T00:19:36.814Z,3.77
2023-02-16T00:22:04.815Z,5.20
2023-02-16T00:24:32.156Z,6.16
2023-02-16T00:27:00.629Z,6.86
2023-02-16T00:29:31.978Z,7.36
2023-02-16T00:32:01.272Z,7.71
2023-02-16T00:34:32.266Z,7.98
2023-02-16T00:37:01.960Z,8.14
2023-02-16T00:39:29.579Z,7.99
2023-02-16T00:42:08.344Z,6.70
2023-02-16T00:44:40.308Z,5.26
2023-02-16T00:47:37.738Z,4.27
2023-02-16T00:50:19.813Z,3.42
2023-02-16T00:52:48.661Z,2.83
2023-02-16T00:55:24.063Z,2.40
2023-02-16T00:58:08.810Z,2.53
2023-02-16T01:00:38.544Z,4.34
2023-02-16T01:03:09.262Z,5.79
2023-02-16T01:05:36.623Z,6.70
2023-02-16T01:08:25.665Z,7.21
2023-02-16T01:10:58.847Z,7.45
2023-02-16T01:13:28.896Z,6.68
2023-02-16T01:15:56.142Z,5.30
2023-02-16T01:18:23.665Z,4.21
2023-02-16T01:20:50.537Z,3.42
2023-02-16T01:23:17.464Z,3.15
2023-02-16T01:25:44.598Z,4.24
2023-02-16T01:28:24.938Z,5.49
2023-02-16T01:30:53.428Z,6.33
2023-02-16T01:33:21.464Z,6.84
2023-02-16T01:35:50.098Z,7.21
2023-02-16T01:38:23.820Z,6.97
2023-02-16T01:40:58.020Z,5.58
2023-02-16T01:43:39.702Z,4.36
2023-02-16T01:46:30.950Z,3.46
2023-02-16T01:48:57.743Z,2.97
2023-02-16T01:51:28.618Z,4.02
2023-02-16T01:54:23.579Z,5.42
2023-02-16T01:57:04.951Z,6.41
2023-02-16T01:59:44.304Z,7.04
2023-02-16T02:02:17.824Z,7.40
2023-02-16T02:05:10.838Z,7.27
2023-02-16T02:07:54.593Z,5.84
2023-02-16T02:10:26.790Z,4.53
2023-02-16T02:13:03.649Z,3.66
2023-02-16T02:15:33.001Z,3.00
2023-02-16T02:18:00.266Z,2.50
2023-02-16T02:20:50.349Z,2.11
2023-02-16T02:23:48.420Z,2.18
2023-02-16T02:26:37.419Z,3.88
2023-02-16T02:29:35.660Z,5.29
2023-02-16T02:32:14.705Z,6.08
2023-02-16T02:35:15.659Z,6.53
2023-02-16T02:38:04.686Z,6.83
2023-02-16T02:41:13.102Z,7.03
2023-02-16T02:44:06.162Z,7.22
2023-02-16T02:46:35.558Z,7.34
2023-02-16T02:49:02.740Z,7.15
2023-02-16T02:51:30.403Z,6.06
2023-02-16T02:54:22.019Z,4.86
2023-02-16T02:57:15.138Z,3.82
2023-02-16T03:00:05.738Z,3.03
2023-02-16T03:02:35.419Z,2.45
2023-02-16T03:05:05.263Z,2.29
2023-02-16T03:07:49.175Z,3.48
2023-02-16T03:10:44.096Z,4.99
2023-02-16T03:13:19.140Z,6.07
2023-02-16T03:15:48.516Z,6.56
2023-02-16T03:18:36.156Z,6.92
2023-02-16T03:21:23.899Z,7.21
2023-02-16T03:24:10.419Z,7.46
2023-02-16T03:26:56.783Z,7.09
2023-02-16T03:29:26.912Z,5.58
2023-02-16T03:31:56.634Z,4.44
2023-02-16T03:34:24.896Z,3.58
2023-02-16T03:36:58.958Z,2.95
2023-02-16T03:39:28.216Z,2.74
2023-02-16T03:41:57.285Z,3.88
2023-02-16T03:44:25.467Z,5.24
2023-02-16T03:46:52.620Z,6.13
2023-02-16T03:49:20.279Z,6.80
2023-02-16T03:51:47.217Z,7.23
2023-02-16T03:54:14.264Z,6.65
2023-02-16T03:56:41.904Z,5.28
2023-02-16T03:59:09.286Z,4.15
2023-02-16T04:01:36.097Z,3.41
2023-02-16T04:04:02.868Z,4.10
2023-02-16T04:06:29.782Z,5.49
2023-02-16T04:08:56.628Z,6.43
2023-02-16T04:11:52.973Z,6.96
2023-02-16T04:14:19.792Z,7.43
2023-02-16T04:16:46.816Z,7.39
2023-02-16T04:19:14.097Z,6.08
2023-02-16T04:21:41.241Z,4.77
2023-02-16T04:24:08.280Z,3.78
2023-02-16T04:26:35.123Z,3.09
2023-02-16T04:29:02.082Z,2.84
2023-02-16T04:31:28.964Z,4.10
2023-02-16T04:33:55.859Z,5.46
2023-02-16T04:36:22.689Z,6.26
2023-02-16T04:38:49.528Z,6.80
2023-02-16T04:41:16.260Z,7.06
2023-02-16T04:43:43.107Z,6.98
2023-02-16T04:46:10.023Z,5.91
2023-02-16T04:48:37.090Z,4.69
2023-02-16T04:51:05.647Z,3.75
2023-02-16T04:53:37.994Z,3.98
2023-02-16T04:56:05.388Z,5.11
2023-02-16T04:58:32.233Z,6.01
2023-02-16T05:00:59.174Z,6.48
2023-02-16T05:03:26.350Z,6.91
2023-02-16T05:05:53.288Z,7.29
2023-02-16T05:08:20.952Z,7.64
2023-02-16T05:11:08.345Z,7.48
2023-02-16T05:13:54.222Z,5.92
2023-02-16T05:16:23.320Z,4.50
2023-02-16T05:18:50.265Z,3.62
2023-02-16T05:21:33.024Z,3.36
2023-02-16T05:24:08.218Z,4.65
2023-02-16T05:26:37.896Z,5.80
2023-02-16T05:29:05.174Z,6.48
2023-02-16T05:31:33.166Z,6.91
2023-02-16T05:33:59.977Z,7.16
2023-02-16T05:36:26.735Z,7.14
2023-02-16T05:38:53.601Z,6.13
2023-02-16T05:41:26.358Z,4.84
2023-02-16T05:43:55.644Z,3.86
2023-02-16T05:46:24.367Z,3.46
2023-02-16T05:48:52.842Z,4.46
2023-02-16T05:51:20.446Z,5.47
2023-02-16T05:53:48.018Z,6.18
2023-02-16T05:56:15.759Z,6.55
2023-02-16T05:58:42.631Z,6.57
2023-02-16T06:01:09.566Z,6.63
2023-02-16T06:03:36.888Z,6.78
2023-02-16T06:06:05.446Z,6.96
2023-02-16T06:08:33.906Z,7.05
2023-02-16T06:11:01.251Z,7.12
2023-02-16T06:13:28.170Z,7.25
2023-02-16T06:15:57.340Z,7.37
2023-02-16T06:18:25.830Z,7.41
2023-02-16T06:20:53.269Z,7.56
2023-02-16T06:23:20.350Z,7.44
2023-02-16T06:25:51.771Z,6.29
2023-02-16T06:28:19.188Z,5.12
2023-02-16T06:30:46.196Z,4.22
2023-02-16T06:33:13.132Z,3.76
2023-02-16T06:35:40.631Z,4.56
2023-02-16T06:38:07.672Z,5.49
2023-02-16T06:40:34.785Z,6.12
2023-02-16T06:43:02.165Z,6.64
2023-02-16T06:45:29.106Z,7.05
2023-02-16T06:47:56.334Z,7.36
2023-02-16T06:50:23.825Z,7.56
2023-02-16T06:52:51.232Z,7.78
2023-02-16T06:55:18.242Z,7.87
2023-02-16T06:57:45.458Z,7.80
2023-02-16T07:00:13.292Z,6.85
2023-02-16T07:02:40.145Z,5.71
2023-02-16T07:05:07.294Z,4.87
2023-02-16T07:07:34.384Z,4.23
2023-02-16T07:10:02.902Z,4.01
2023-02-16T07:12:30.224Z,4.92
2023-02-16T07:14:57.266Z,5.96
2023-02-16T07:17:24.224Z,6.73
2023-02-16T07:19:51.103Z,7.21
2023-02-16T07:22:18.306Z,7.51
2023-02-16T07:24:45.280Z,7.83
2023-02-16T07:27:12.468Z,8.14
2023-02-16T07:29:40.190Z,8.38
2023-02-16T07:32:07.630Z,8.54
2023-02-16T07:34:34.952Z,8.38
2023-02-16T07:37:02.063Z,7.31
2023-02-16T07:39:30.394Z,6.22
2023-02-16T07:41:57.466Z,5.44
2023-02-16T07:44:24.548Z,5.08
2023-02-16T07:46:51.843Z,5.87
2023-02-16T07:49:19.505Z,6.83
2023-02-16T07:51:46.766Z,7.60
2023-02-16T07:54:14.490Z,8.37
2023-02-16T07:56:42.831Z,8.92
2023-02-16T07:59:09.745Z,9.01
2023-02-16T08:01:37.913Z,8.09
2023-02-16T08:04:05.772Z,7.09
2023-02-16T08:06:35.046Z,6.36
2023-02-16T08:09:02.017Z,6.18
2023-02-16T08:11:29.114Z,7.30
2023-02-16T08:13:56.424Z,8.35
2023-02-16T08:16:26.560Z,9.08
2023-02-16T08:18:55.592Z,9.64
2023-02-16T08:21:25.206Z,9.81
2023-02-16T08:24:05.832Z,8.90
2023-02-16T08:26:39.689Z,7.94
2023-02-16T08:29:10.331Z,7.34
2023-02-16T08:31:38.536Z,6.95
2023-02-16T08:34:06.487Z,6.68
2023-02-16T08:36:37.060Z,7.16
2023-02-16T08:39:15.216Z,8.22
2023-02-16T08:41:44.005Z,9.12
2023-02-16T08:44:11.859Z,9.72
2023-02-16T08:46:40.884Z,9.99
2023-02-16T08:49:09.229Z,9.42
2023-02-16T08:51:41.348Z,8.82
2023-02-16T08:54:12.227Z,8.42
2023-02-16T08:56:39.782Z,8.20
2023-02-16T08:59:06.788Z,8.84
2023-02-16T09:04:20.412Z,11.06
2023-02-16T09:06:49.092Z,10.32
2023-02-16T09:09:17.343Z,9.58
2023-02-16T09:11:44.686Z,8.99
2023-02-16T09:14:12.329Z,8.57
2023-02-16T09:16:45.889Z,8.28
2023-02-16T09:19:19.838Z,8.26
2023-02-16T09:21:49.041Z,9.33
2023-02-16T09:24:16.451Z,10.54
2023-02-16T09:26:44.965Z,11.14
2023-02-16T09:29:14.227Z,10.61
2023-02-16T09:31:42.781Z,9.93
2023-02-16T09:34:20.471Z,9.40
2023-02-16T09:36:48.863Z,9.01
2023-02-16T09:39:17.808Z,8.82
2023-02-16T09:42:52.615Z,8.78
2023-02-16T09:45:22.139Z,8.84
2023-02-16T09:47:51.960Z,9.05
2023-02-16T09:50:43.626Z,9.30
2023-02-16T09:53:33.048Z,10.25
2023-02-16T09:56:06.735Z,11.61
2023-02-16T09:58:44.923Z,11.77
2023-02-16T10:01:40.674Z,11.41
2023-02-16T10:04:24.815Z,11.09
2023-02-16T10:07:10.444Z,10.90
2023-02-16T10:09:38.476Z,10.68
2023-02-16T10:12:14.004Z,10.53
2023-02-16T10:14:46.381Z,10.46
2023-02-16T10:17:24.307Z,10.34
2023-02-16T10:20:07.005Z,10.19
2023-02-16T10:22:41.166Z,10.09
2023-02-16T10:25:24.936Z,10.08
2023-02-16T10:28:09.258Z,10.09
2023-02-16T10:30:36.449Z,10.10
2023-02-16T10:33:24.538Z,10.20
2023-02-16T10:35:59.722Z,10.38
2023-02-16T10:38:38.432Z,10.63
2023-02-16T10:41:22.576Z,10.77
2023-02-16T10:44:11.649Z,10.92
2023-02-16T10:46:52.458Z,10.96
2023-02-16T10:49:19.759Z,10.99
2023-02-16T10:51:50.219Z,11.10
2023-02-16T10:54:23.332Z,11.26
2023-02-16T10:57:12.251Z,11.34
2023-02-16T10:59:44.853Z,11.41
2023-02-16T11:02:25.680Z,11.47
2023-02-16T11:04:54.622Z,11.52
2023-02-16T11:07:27.579Z,11.53
2023-02-16T11:09:57.496Z,11.44
2023-02-16T11:12:34.649Z,11.37
2023-02-16T11:15:14.191Z,11.36
2023-02-16T11:17:52.951Z,11.44
2023-02-16T11:20:29.061Z,11.61
2023-02-16T11:23:13.617Z,11.77
2023-02-16T11:25:40.972Z,11.93
2023-02-16T11:28:15.492Z,12.06
2023-02-16T11:30:43.667Z,12.15
2023-02-16T11:33:27.172Z,12.24
2023-02-16T11:35:55.574Z,12.28
2023-02-16T11:38:36.648Z,12.27
2023-02-16T11:41:06.863Z,12.25
2023-02-16T11:43:38.999Z,12.18
2023-02-16T11:46:15.354Z,12.04
2023-02-16T11:48:44.291Z,11.95
2023-02-16T11:51:15.930Z,11.95
2023-02-16T11:53:44.696Z,11.92
2023-02-16T11:56:14.282Z,11.86
2023-02-16T11:58:41.712Z,11.83
2023-02-16T12:01:26.128Z,11.92
2023-02-16T12:04:18.769Z,12.09
2023-02-16T12:07:04.364Z,12.24
2023-02-16T12:09:46.594Z,12.25
2023-02-16T12:12:19.733Z,12.18
2023-02-16T12:15:03.887Z,12.28
2023-02-16T12:18:02.974Z,12.42
2023-02-16T12:20:59.094Z,12.54
2023-02-16T12:23:42.841Z,12.48
2023-02-16T12:26:44.433Z,12.40
2023-02-16T12:29:27.433Z,12.43
2023-02-16T12:32:30.714Z,12.46
2023-02-16T12:35:32.204Z,12.38
2023-02-16T12:38:05.965Z,12.28
2023-02-16T12:40:51.234Z,12.28
2023-02-16T12:43:50.945Z,12.23
2023-02-16T12:46:42.744Z,12.08
2023-02-16T12:49:46.361Z,11.96
2023-02-16T12:52:36.017Z,11.92
2023-02-16T12:55:20.821Z,12.03
2023-02-16T12:58:20.979Z,12.06
2023-02-16T13:01:01.435Z,12.00
2023-02-16T13:03:35.360Z,11.93
2023-02-16T13:06:09.199Z,11.87
2023-02-16T13:08:42.552Z,11.79
2023-02-16T13:11:34.755Z,11.70
2023-02-16T13:14:06.554Z,11.68
2023-02-16T13:16:55.608Z,11.70
2023-02-16T13:19:23.585Z,11.70
2023-02-16T13:22:32.572Z,11.69
2023-02-16T13:25:32.202Z,11.62
2023-02-16T13:28:47.076Z,11.44
2023-02-16T13:31:53.996Z,11.19
2023-02-16T13:34:27.186Z,10.97
2023-02-16T13:37:03.358Z,10.78
2023-02-16T13:39:49.490Z,10.55
2023-02-16T13:42:26.005Z,10.35
2023-02-16T13:44:58.620Z,10.18
2023-02-16T13:47:33.609Z,10.04
2023-02-16T13:50:07.946Z,9.86
2023-02-16T13:52:38.768Z,9.70
2023-02-16T13:55:22.445Z,9.59
2023-02-16T13:57:51.739Z,9.51
2023-02-16T14:00:41.164Z,9.45
2023-02-16T14:03:32.834Z,9.32
2023-02-16T14:06:40.401Z,9.16
2023-02-16T14:09:16.379Z,8.96
2023-02-16T14:11:59.804Z,8.77
2023-02-16T14:14:34.209Z,8.57
2023-02-16T14:17:19.741Z,8.44
2023-02-16T14:20:14.143Z,8.34
2023-02-16T14:22:43.766Z,8.22
2023-02-16T14:25:39.276Z,8.16
2023-02-16T14:28:32.317Z,8.06
2023-02-16T14:31:03.297Z,7.97
2023-02-16T14:33:47.706Z,7.88
2023-02-16T14:36:18.290Z,7.79
2023-02-16T14:38:50.052Z,7.70
2023-02-16T14:41:23.189Z,7.65
2023-02-16T14:43:56.755Z,7.60
2023-02-16T14:47:01.790Z,7.55
2023-02-16T14:49:40.937Z,7.45
2023-02-16T14:52:37.547Z,7.35
2023-02-16T14:55:54.429Z,7.20
2023-02-16T14:59:01.228Z,7.08
2023-02-16T15:01:28.788Z,6.97
2023-02-16T15:03:58.554Z,6.88
2023-02-16T15:06:32.946Z,6.81
2023-02-16T15:09:05.219Z,6.72
2023-02-16T15:12:02.688Z,6.64
2023-02-16T15:14:33.866Z,6.56
2023-02-16T15:17:01.068Z,6.49
2023-02-16T15:19:31.290Z,6.42
2023-02-16T15:22:31.093Z,6.37
2023-02-16T15:25:06.274Z,6.31
2023-02-16T15:27:36.410Z,6.25
2023-02-16T15:30:24.432Z,6.20
2023-02-16T15:32:58.427Z,6.14
2023-02-16T15:35:41.369Z,6.07
2023-02-16T15:38:21.623Z,6.01
2023-02-16T15:40:53.710Z,5.92
2023-02-16T15:43:44.250Z,5.85
2023-02-16T15:46:27.076Z,5.78
2023-02-16T15:48:55.285Z,5.71
2023-02-16T15:51:34.746Z,5.87
2023-02-16T15:54:05.527Z,7.22
2023-02-16T15:56:41.208Z,8.56
2023-02-16T15:59:23.057Z,9.56
2023-02-16T16:01:57.821Z,10.27
2023-02-16T16:04:27.097Z,10.84
2023-02-16T16:06:55.572Z,11.01
2023-02-16T16:09:22.974Z,9.96
2023-02-16T16:11:52.161Z,8.79
2023-02-16T16:14:19.651Z,7.92
2023-02-16T16:16:47.739Z,7.28
2023-02-16T16:19:33.985Z,6.76
2023-02-16T16:22:03.170Z,6.26
2023-02-16T16:24:45.733Z,5.91
2023-02-16T16:27:13.799Z,5.59
2023-02-16T16:29:47.092Z,5.32
2023-02-16T16:32:23.464Z,5.09
2023-02-16T16:35:06.362Z,4.88
2023-02-16T16:37:47.397Z,4.70
2023-02-16T16:40:27.468Z,4.55
2023-02-16T16:43:05.082Z,4.41
2023-02-16T16:45:49.840Z,4.30
2023-02-16T16:48:32.281Z,4.21
2023-02-16T16:51:10.352Z,4.51
2023-02-16T16:54:02.588Z,6.30
2023-02-16T16:56:32.050Z,8.04
2023-02-16T16:58:59.867Z,8.96
2023-02-16T17:01:29.072Z,9.58
2023-02-16T17:03:56.508Z,10.01
2023-02-16T17:06:24.736Z,10.03
2023-02-16T17:08:52.301Z,8.92
2023-02-16T17:11:27.978Z,7.78
2023-02-16T17:13:57.173Z,6.89
2023-02-16T17:16:28.507Z,6.25
2023-02-16T17:18:55.637Z,5.73
2023-02-16T17:21:23.463Z,5.31
2023-02-16T17:23:53.433Z,4.97
2023-02-16T17:26:22.532Z,4.67
2023-02-16T17:28:50.058Z,4.44
2023-02-16T17:31:17.719Z,4.23
2023-02-16T17:33:45.177Z,4.07
2023-02-16T17:36:16.066Z,3.92
2023-02-16T17:38:44.302Z,3.79
2023-02-16T17:41:23.425Z,3.98
2023-02-16T17:43:51.766Z,5.59
2023-02-16T17:46:19.986Z,7.18
2023-02-16T17:48:50.547Z,8.33
2023-02-16T17:51:20.129Z,9.04
2023-02-16T17:53:47.337Z,9.40
2023-02-16T17:56:16.786Z,9.12
2023-02-16T17:58:44.142Z,7.90
2023-02-16T18:01:14.744Z,6.77
2023-02-16T18:03:42.152Z,5.93
2023-02-16T18:06:14.071Z,5.32
2023-02-16T18:08:42.320Z,4.84
2023-02-16T18:11:09.338Z,4.49
2023-02-16T18:13:36.776Z,4.17
2023-02-16T18:16:07.533Z,3.91
2023-02-16T18:18:39.526Z,3.69
2023-02-16T18:21:07.460Z,3.52
2023-02-16T18:23:34.413Z,3.71
2023-02-16T18:26:01.457Z,5.29
2023-02-16T18:28:31.662Z,6.81
2023-02-16T18:30:59.612Z,7.90
2023-02-16T18:33:27.360Z,8.65
2023-02-16T18:35:57.605Z,8.89
2023-02-16T18:38:25.299Z,7.83
2023-02-16T18:40:54.383Z,6.67
2023-02-16T18:43:21.598Z,5.75
2023-02-16T18:45:48.722Z,5.08
2023-02-16T18:48:15.952Z,4.57
2023-02-16T18:50:43.342Z,4.16
2023-02-16T18:53:10.388Z,3.86
2023-02-16T18:55:37.422Z,3.62
2023-02-16T18:58:08.335Z,3.43
2023-02-16T19:00:35.821Z,3.62
2023-02-16T19:03:03.384Z,5.17
2023-02-16T19:05:30.792Z,6.79
2023-02-16T19:07:57.920Z,7.96
2023-02-16T19:10:25.595Z,8.80
2023-02-16T19:12:52.823Z,9.37
2023-02-16T19:15:19.877Z,9.47
2023-02-16T19:17:47.186Z,8.35
2023-02-16T19:20:18.586Z,7.10
2023-02-16T19:22:55.152Z,6.11
2023-02-16T19:25:24.092Z,5.38
2023-02-16T19:27:51.176Z,4.84
2023-02-16T19:30:21.091Z,4.37
2023-02-16T19:32:48.958Z,4.01
2023-02-16T19:35:16.436Z,3.70
2023-02-16T19:37:43.609Z,3.44
2023-02-16T19:40:11.614Z,3.20
2023-02-16T19:42:39.607Z,3.02
2023-02-16T19:45:07.549Z,3.10
2023-02-16T19:47:34.965Z,4.51
2023-02-16T19:50:02.742Z,6.12
2023-02-16T19:52:29.808Z,7.19
2023-02-16T19:54:57.126Z,7.90
2023-02-16T19:57:24.267Z,8.37
2023-02-16T19:59:51.565Z,8.61
2023-02-16T20:02:18.577Z,8.79
2023-02-16T20:04:45.650Z,8.66
2023-02-16T20:07:12.701Z,7.57
2023-02-16T20:09:39.936Z,6.42
2023-02-16T20:12:07.215Z,5.52
2023-02-16T20:14:34.405Z,4.87
2023-02-16T20:17:01.445Z,4.34
2023-02-16T20:19:28.347Z,3.89
2023-02-16T20:21:55.486Z,3.53
2023-02-16T20:24:22.525Z,3.49
2023-02-16T20:26:52.342Z,4.83
2023-02-16T20:29:21.080Z,6.33
2023-02-16T20:31:56.494Z,7.32
2023-02-16T20:34:25.379Z,7.95
2023-02-16T20:36:53.365Z,8.35
2023-02-16T20:39:21.213Z,8.32
2023-02-16T20:41:48.534Z,7.16
2023-02-16T20:44:16.329Z,5.95
2023-02-16T20:46:44.069Z,5.04
2023-02-16T20:49:10.914Z,4.38
2023-02-16T20:51:38.863Z,3.89
2023-02-16T20:54:06.124Z,3.72
2023-02-16T20:56:33.161Z,4.83
2023-02-16T20:59:00.305Z,5.96
2023-02-16T21:01:31.040Z,6.68
2023-02-16T21:04:00.012Z,7.14
2023-02-16T21:06:28.657Z,7.51
2023-02-16T21:08:56.341Z,7.62
2023-02-16T21:11:24.091Z,6.97
2023-02-16T21:13:51.583Z,5.85
2023-02-16T21:16:18.902Z,4.95
2023-02-16T21:18:46.302Z,4.29
2023-02-16T21:21:15.965Z,3.79
2023-02-16T21:23:49.286Z,3.42
2023-02-16T21:26:18.393Z,3.12
2023-02-16T21:28:46.290Z,3.13
2023-02-16T21:31:18.474Z,4.32
2023-02-16T21:33:47.029Z,5.69
2023-02-16T21:36:20.327Z,6.64
2023-02-16T21:38:47.681Z,7.35
2023-02-16T21:41:27.927Z,7.87
2023-02-16T21:43:54.740Z,8.25
2023-02-16T21:46:22.888Z,8.56
2023-02-16T21:48:50.651Z,8.78
2023-02-16T21:51:24.416Z,8.62
2023-02-16T21:53:52.237Z,7.35
2023-02-16T21:56:24.518Z,6.04
2023-02-16T21:58:51.611Z,5.07
2023-02-16T22:01:30.890Z,4.40
2023-02-16T22:04:00.629Z,4.12
2023-02-16T22:06:37.871Z,5.24
2023-02-16T22:09:07.517Z,6.51
2023-02-16T22:11:34.547Z,7.42
2023-02-16T22:14:02.870Z,8.10
2023-02-16T22:16:31.373Z,8.55
2023-02-16T22:19:00.948Z,8.59
2023-02-16T22:21:29.113Z,7.36
2023-02-16T22:23:57.304Z,6.11
2023-02-16T22:26:30.008Z,5.23
2023-02-16T22:28:57.454Z,4.55
2023-02-16T22:31:26.488Z,4.04
2023-02-16T22:34:12.398Z,3.64
2023-02-16T22:36:40.424Z,3.32
2023-02-16T22:39:08.172Z,3.38
2023-02-16T22:41:36.152Z,4.79
2023-02-16T22:44:03.176Z,6.20
2023-02-16T22:46:30.959Z,7.16
2023-02-16T22:48:59.364Z,7.79
2023-02-16T22:51:29.480Z,8.21
2023-02-16T22:53:58.655Z,8.51
2023-02-16T22:56:27.378Z,8.73
2023-02-16T22:58:57.628Z,8.55
2023-02-16T23:01:27.055Z,7.38
2023-02-16T23:03:57.703Z,6.20
2023-02-16T23:06:36.335Z,5.28
2023-02-16T23:09:15.147Z,4.55
2023-02-16T23:11:41.950Z,3.99
2023-02-16T23:14:16.773Z,3.57
2023-02-16T23:16:48.768Z,3.23
2023-02-16T23:19:19.002Z,2.95
2023-02-16T23:21:46.316Z,2.86
2023-02-16T23:24:22.165Z,3.99
2023-02-16T23:26:49.361Z,5.69
2023-02-16T23:29:16.656Z,6.89
2023-02-16T23:31:45.006Z,7.64
2023-02-16T23:34:12.973Z,8.22
2023-02-16T23:36:40.528Z,8.67
2023-02-16T23:39:11.453Z,9.02
2023-02-16T23:41:39.606Z,8.96
2023-02-16T23:44:07.914Z,7.72
2023-02-16T23:46:35.195Z,6.46
2023-02-16T23:49:02.469Z,5.50
2023-02-16T23:51:29.598Z,4.74
2023-02-16T23:53:57.278Z,4.11
2023-02-16T23:56:27.767Z,3.65
2023-02-16T23:59:00.139Z,3.51
